createdAt,value
2023-03-24T00:01:58.431Z,61.30
2023-03-24T00:04:27.771Z,62.47
2023-03-24T00:06:55.951Z,61.63
2023-03-24T00:09:23.961Z,62.60
2023-03-24T00:11:52.187Z,60.33
2023-03-24T00:14:20.445Z,63.60
2023-03-24T00:16:50.152Z,65.27
2023-03-24T00:19:20.068Z,66.93
2023-03-24T00:21:48.122Z,67.90
2023-03-24T00:24:16.159Z,66.43
2023-03-24T00:26:44.248Z,66.23
2023-03-24T00:29:13.716Z,65.00
2023-03-24T00:31:42.970Z,63.60
2023-03-24T00:34:11.410Z,68.93
2023-03-24T00:36:40.738Z,67.50
2023-03-24T00:39:08.867Z,64.50
2023-03-24T00:41:36.880Z,67.00
2023-03-24T00:44:09.824Z,63.90
2023-03-24T00:46:39.021Z,64.63
2023-03-24T00:49:11.998Z,65.37
2023-03-24T00:51:42.451Z,64.43
2023-03-24T00:54:14.110Z,67.70
2023-03-24T00:56:43.646Z,64.03
2023-03-24T00:59:13.990Z,67.30
2023-03-24T01:01:43.361Z,64.90
2023-03-24T01:04:11.621Z,64.23
2023-03-24T01:06:42.142Z,66.10
2023-03-24T01:09:10.610Z,68.67
2023-03-24T01:11:41.234Z,68.07
2023-03-24T01:14:10.615Z,70.93
2023-03-24T01:16:38.817Z,67.20
2023-03-24T01:19:09.148Z,66.20
2023-03-24T01:21:38.365Z,69.00
2023-03-24T01:24:08.376Z,66.93
2023-03-24T01:26:36.593Z,65.70
2023-03-24T01:29:04.767Z,63.70
2023-03-24T01:31:33.227Z,63.23
2023-03-24T01:34:01.433Z,64.80
2023-03-24T01:36:29.675Z,63.77
2023-03-24T01:38:58.577Z,63.80
2023-03-24T01:41:28.803Z,67.33
2023-03-24T01:43:56.891Z,64.77
2023-03-24T01:46:26.643Z,66.30
2023-03-24T01:48:59.814Z,65.03
2023-03-24T01:51:31.563Z,66.77
2023-03-24T01:54:03.430Z,67.10
2023-03-24T01:56:36.339Z,67.90
2023-03-24T01:59:08.833Z,62.20
2023-03-24T02:01:37.058Z,61.37
2023-03-24T02:04:08.669Z,64.00
2023-03-24T02:06:41.448Z,64.17
2023-03-24T02:09:11.439Z,62.67
2023-03-24T02:11:41.851Z,64.70
2023-03-24T02:14:12.274Z,62.30
2023-03-24T02:16:51.876Z,62.80
2023-03-24T02:19:47.003Z,65.27
2023-03-24T02:22:43.506Z,64.77
2023-03-24T02:25:37.762Z,62.20
2023-03-24T02:28:32.204Z,61.37
2023-03-24T02:31:12.231Z,64.47
2023-03-24T02:34:22.024Z,68.23
2023-03-24T02:37:40.920Z,69.50
2023-03-24T02:40:21.774Z,58.73
2023-03-24T02:43:06.905Z,52.00
2023-03-24T02:45:38.049Z,50.77
2023-03-24T02:48:22.495Z,49.40
2023-03-24T02:50:55.843Z,46.67
2023-03-24T02:53:32.433Z,46.90
2023-03-24T02:56:10.932Z,49.73
2023-03-24T02:58:42.505Z,50.80
2023-03-24T03:01:16.219Z,46.63
2023-03-24T03:03:50.403Z,46.87
2023-03-24T03:06:24.644Z,46.13
2023-03-24T03:08:53.084Z,45.03
2023-03-24T03:11:22.729Z,46.50
2023-03-24T03:13:54.797Z,46.03
2023-03-24T03:16:29.031Z,46.20
2023-03-24T03:19:03.428Z,47.30
2023-03-24T03:21:39.092Z,47.70
2023-03-24T03:24:11.101Z,43.60
2023-03-24T03:26:42.966Z,43.27
2023-03-24T03:29:16.780Z,45.20
2023-03-24T03:31:51.738Z,44.57
2023-03-24T03:34:29.141Z,45.87
2023-03-24T03:37:05.008Z,46.70
2023-03-24T03:39:35.567Z,47.73
2023-03-24T03:42:07.023Z,49.43
2023-03-24T03:44:35.283Z,48.40
2023-03-24T03:47:03.364Z,48.67
2023-03-24T03:49:31.862Z,46.03
2023-03-24T03:51:59.774Z,47.17
2023-03-24T03:54:31.812Z,49.73
2023-03-24T03:57:01.109Z,49.80
2023-03-24T03:59:33.903Z,50.80
2023-03-24T04:02:14.581Z,48.97
2023-03-24T04:05:06.755Z,50.40
2023-03-24T04:07:41.614Z,50.20
2023-03-24T04:10:19.716Z,53.40
2023-03-24T04:13:10.702Z,52.80
2023-03-24T04:15:47.265Z,57.47
2023-03-24T04:18:53.725Z,57.70
2023-03-24T04:21:43.008Z,57.93
2023-03-24T04:24:27.511Z,58.13
2023-03-24T04:27:00.537Z,59.13
2023-03-24T04:29:38.003Z,57.37
2023-03-24T04:32:19.554Z,56.93
2023-03-24T04:34:50.910Z,57.70
2023-03-24T04:37:24.033Z,56.47
2023-03-24T04:39:59.065Z,54.43
2023-03-24T04:42:31.801Z,52.60
2023-03-24T04:45:00.652Z,51.80
2023-03-24T04:47:34.873Z,49.30
2023-03-24T04:50:03.790Z,50.00
2023-03-24T04:52:31.933Z,49.43
2023-03-24T04:55:00.803Z,48.90
2023-03-24T04:57:28.913Z,47.93
2023-03-24T04:59:56.953Z,48.30
2023-03-24T05:02:25.026Z,49.47
2023-03-24T05:04:54.431Z,48.57
2023-03-24T05:07:22.566Z,50.07
2023-03-24T05:09:51.008Z,50.73
2023-03-24T05:12:19.060Z,52.47
2023-03-24T05:14:47.191Z,52.97
2023-03-24T05:17:15.298Z,54.40
2023-03-24T05:19:43.399Z,54.67
2023-03-24T05:22:12.860Z,59.60
2023-03-24T05:24:41.304Z,59.17
2023-03-24T05:27:09.316Z,60.20
2023-03-24T05:29:37.383Z,57.70
2023-03-24T05:32:06.172Z,59.20
2023-03-24T05:34:34.551Z,59.00
2023-03-24T05:37:02.631Z,57.27
2023-03-24T05:39:32.070Z,58.40
2023-03-24T05:42:00.118Z,59.20
2023-03-24T05:44:28.200Z,57.40
2023-03-24T05:46:56.256Z,54.50
2023-03-24T05:49:24.312Z,57.77
2023-03-24T05:51:52.242Z,58.30
2023-03-24T05:54:22.170Z,55.10
2023-03-24T05:56:51.724Z,55.60
2023-03-24T05:59:19.952Z,56.27
2023-03-24T06:01:48.714Z,55.87
2023-03-24T06:04:16.830Z,53.80
2023-03-24T06:06:45.820Z,55.30
2023-03-24T06:09:16.896Z,50.17
2023-03-24T06:11:44.985Z,50.30
2023-03-24T06:14:14.736Z,49.43
2023-03-24T06:16:53.197Z,47.40
2023-03-24T06:19:22.685Z,47.70
2023-03-24T06:21:51.178Z,46.40
2023-03-24T06:24:19.716Z,46.40
2023-03-24T06:26:50.088Z,44.50
2023-03-24T06:29:19.694Z,42.37
2023-03-24T06:31:49.796Z,42.77
2023-03-24T06:34:17.917Z,42.83
2023-03-24T06:36:45.950Z,41.00
2023-03-24T06:39:14.555Z,38.30
2023-03-24T06:41:43.159Z,37.50
2023-03-24T06:44:12.098Z,36.97
2023-03-24T06:46:41.933Z,35.87
2023-03-24T06:49:09.992Z,33.90
2023-03-24T06:51:38.535Z,31.60
2023-03-24T06:54:06.739Z,32.17
2023-03-24T06:56:34.941Z,32.57
2023-03-24T06:59:03.295Z,34.93
2023-03-24T07:01:32.205Z,31.93
2023-03-24T07:04:01.842Z,31.37
2023-03-24T07:06:30.724Z,31.70
2023-03-24T07:08:59.571Z,30.77
2023-03-24T07:11:27.973Z,30.37
2023-03-24T07:13:56.071Z,29.20
2023-03-24T07:16:24.396Z,28.93
2023-03-24T07:18:52.712Z,29.70
2023-03-24T07:21:22.261Z,31.60
2023-03-24T07:23:50.588Z,29.03
2023-03-24T07:26:18.672Z,30.90
2023-03-24T07:28:47.303Z,29.37
2023-03-24T07:31:15.544Z,27.87
2023-03-24T07:33:43.617Z,30.50
2023-03-24T07:36:12.060Z,28.30
2023-03-24T07:38:41.562Z,26.03
2023-03-24T07:41:09.692Z,26.67
2023-03-24T07:43:37.720Z,27.13
2023-03-24T07:46:06.819Z,26.17
2023-03-24T07:48:36.526Z,27.30
2023-03-24T07:51:05.113Z,26.50
2023-03-24T07:53:33.832Z,24.47
2023-03-24T07:56:03.701Z,26.07
2023-03-24T07:58:31.825Z,24.53
2023-03-24T08:00:59.888Z,25.00
2023-03-24T08:03:28.531Z,27.57
2023-03-24T08:05:57.972Z,24.90
2023-03-24T08:08:26.116Z,23.63
2023-03-24T08:10:54.199Z,24.60
2023-03-24T08:13:23.655Z,26.20
2023-03-24T08:15:53.216Z,25.20
2023-03-24T08:18:21.899Z,25.20
2023-03-24T08:20:51.452Z,24.03
2023-03-24T08:23:19.445Z,23.70
2023-03-24T08:25:48.388Z,22.50
2023-03-24T08:28:19.958Z,22.33
2023-03-24T08:30:49.900Z,21.50
2023-03-24T08:33:18.355Z,23.00
2023-03-24T08:35:47.453Z,20.83
2023-03-24T08:38:18.763Z,21.73
2023-03-24T08:40:48.972Z,20.97
2023-03-24T08:43:17.957Z,20.73
2023-03-24T08:45:46.326Z,19.93
2023-03-24T08:48:16.070Z,19.73
2023-03-24T08:50:44.398Z,20.37
2023-03-24T08:53:12.585Z,20.90
2023-03-24T08:55:43.148Z,20.20
2023-03-24T08:58:15.311Z,20.27
2023-03-24T09:00:44.265Z,19.63
2023-03-24T09:03:18.373Z,25.80
2023-03-24T09:05:47.669Z,19.30
2023-03-24T09:08:18.717Z,19.27
2023-03-24T09:10:47.630Z,20.13
2023-03-24T09:13:15.871Z,20.00
2023-03-24T09:15:48.791Z,20.20
2023-03-24T09:18:20.043Z,20.03
2023-03-24T09:20:48.858Z,20.80
2023-03-24T09:23:17.220Z,20.83
2023-03-24T09:25:45.566Z,20.90
2023-03-24T09:28:14.998Z,21.57
2023-03-24T09:30:43.208Z,20.13
2023-03-24T09:33:11.316Z,21.30
2023-03-24T09:35:41.118Z,20.27
2023-03-24T09:38:10.748Z,20.33
2023-03-24T09:40:41.022Z,20.90
2023-03-24T09:43:15.600Z,20.13
2023-03-24T09:45:50.012Z,20.20
2023-03-24T09:48:22.221Z,20.30
2023-03-24T09:50:55.988Z,19.67
2023-03-24T09:53:32.670Z,19.80
2023-03-24T09:56:06.350Z,19.67
2023-03-24T09:58:34.634Z,20.20
2023-03-24T10:01:02.692Z,20.50
2023-03-24T10:03:31.398Z,19.63
2023-03-24T10:06:08.877Z,20.20
2023-03-24T10:08:38.508Z,19.17
2023-03-24T10:11:12.298Z,19.77
2023-03-24T10:13:55.262Z,21.60
2023-03-24T10:16:31.344Z,19.87
2023-03-24T10:19:04.244Z,18.93
2023-03-24T10:21:36.984Z,20.37
2023-03-24T10:24:13.560Z,19.87
2023-03-24T10:26:48.712Z,18.70
2023-03-24T10:29:29.509Z,19.60
2023-03-24T10:32:01.831Z,19.27
2023-03-24T10:34:32.483Z,18.50
2023-03-24T10:37:04.889Z,19.37
2023-03-24T10:39:44.277Z,18.60
2023-03-24T10:42:18.772Z,18.70
2023-03-24T10:44:49.351Z,18.37
2023-03-24T10:47:21.384Z,18.43
2023-03-24T10:49:58.368Z,18.70
2023-03-24T10:52:28.482Z,17.90
2023-03-24T10:54:58.494Z,18.07
2023-03-24T10:57:27.780Z,19.27
2023-03-24T10:59:59.776Z,19.33
2023-03-24T11:02:31.002Z,18.40
2023-03-24T11:05:02.313Z,18.57
2023-03-24T11:07:36.146Z,18.47
2023-03-24T11:10:08.745Z,18.80
2023-03-24T11:12:39.084Z,19.23
2023-03-24T11:15:26.218Z,19.03
2023-03-24T11:17:57.479Z,18.47
2023-03-24T11:20:32.891Z,18.73
2023-03-24T11:23:04.228Z,18.40
2023-03-24T11:25:34.621Z,18.40
2023-03-24T11:28:04.831Z,18.87
2023-03-24T11:30:36.150Z,19.37
2023-03-24T11:33:06.330Z,21.07
2023-03-24T11:35:59.460Z,19.97
2023-03-24T11:38:31.848Z,19.83
2023-03-24T11:41:04.300Z,19.90
2023-03-24T11:43:32.884Z,20.23
2023-03-24T11:46:03.942Z,20.53
2023-03-24T11:48:41.704Z,20.53
2023-03-24T11:51:12.877Z,20.77
2023-03-24T11:53:48.615Z,20.63
2023-03-24T11:56:27.006Z,20.67
2023-03-24T11:59:02.301Z,20.63
2023-03-24T12:01:37.824Z,20.70
2023-03-24T12:04:21.878Z,19.90
2023-03-24T12:07:07.354Z,19.90
2023-03-24T12:09:43.279Z,19.77
2023-03-24T12:12:30.136Z,19.80
2023-03-24T12:15:27.381Z,19.50
2023-03-24T12:18:10.438Z,19.80
2023-03-24T12:20:45.882Z,19.80
2023-03-24T12:23:19.558Z,19.40
2023-03-24T12:26:08.857Z,19.27
2023-03-24T12:28:53.714Z,19.00
2023-03-24T12:31:41.683Z,19.00
2023-03-24T12:34:27.411Z,18.60
2023-03-24T12:37:01.401Z,18.93
2023-03-24T12:39:32.091Z,18.57
2023-03-24T12:42:11.352Z,18.60
2023-03-24T12:45:17.286Z,18.47
2023-03-24T12:48:02.162Z,18.50
2023-03-24T12:50:40.096Z,18.77
2023-03-24T12:53:23.208Z,19.00
2023-03-24T12:55:54.515Z,27.53
2023-03-24T12:58:27.950Z,18.07
2023-03-24T13:01:04.641Z,19.03
2023-03-24T13:03:39.332Z,18.30
2023-03-24T13:06:17.645Z,19.07
2023-03-24T13:08:53.344Z,18.50
2023-03-24T13:11:32.656Z,19.40
2023-03-24T13:14:06.321Z,18.73
2023-03-24T13:16:36.728Z,18.77
2023-03-24T13:19:08.096Z,18.47
2023-03-24T13:21:37.796Z,19.40
2023-03-24T13:24:10.672Z,18.93
2023-03-24T13:26:43.676Z,18.80
2023-03-24T13:29:45.450Z,19.27
2023-03-24T13:32:26.871Z,19.67
2023-03-24T13:34:59.919Z,19.40
2023-03-24T13:37:34.044Z,19.63
2023-03-24T13:40:07.788Z,20.50
2023-03-24T13:42:43.171Z,19.80
2023-03-24T13:45:25.768Z,19.80
2023-03-24T13:48:04.691Z,20.00
2023-03-24T13:50:34.102Z,19.20
2023-03-24T13:53:07.782Z,19.57
2023-03-24T13:55:40.540Z,20.17
2023-03-24T13:58:17.929Z,19.90
2023-03-24T14:01:25.345Z,20.60
2023-03-24T14:04:27.078Z,22.17
2023-03-24T14:06:56.463Z,24.50
2023-03-24T14:09:26.345Z,22.17
2023-03-24T14:12:21.236Z,24.27
2023-03-24T14:15:15.403Z,26.90
2023-03-24T14:17:46.293Z,26.37
2023-03-24T14:20:39.540Z,27.00
2023-03-24T14:23:23.143Z,25.50
2023-03-24T14:25:55.922Z,24.50
2023-03-24T14:28:37.471Z,24.60
2023-03-24T14:31:13.444Z,24.00
2023-03-24T14:33:45.035Z,23.90
2023-03-24T14:36:23.197Z,23.97
2023-03-24T14:38:51.368Z,22.60
2023-03-24T14:41:31.360Z,23.80
2023-03-24T14:44:01.595Z,23.27
2023-03-24T14:46:41.231Z,23.40
2023-03-24T14:49:24.664Z,22.27
2023-03-24T14:51:59.717Z,23.40
2023-03-24T14:54:35.598Z,23.10
2023-03-24T14:57:05.041Z,23.23
2023-03-24T14:59:42.258Z,22.60
2023-03-24T15:02:31.145Z,23.00
2023-03-24T15:05:20.017Z,23.00
2023-03-24T15:08:04.658Z,22.00
2023-03-24T15:10:40.618Z,22.03
2023-03-24T15:13:33.880Z,22.00
2023-03-24T15:16:04.109Z,22.40
2023-03-24T15:18:32.418Z,21.67
2023-03-24T15:21:00.756Z,21.00
2023-03-24T15:23:31.322Z,21.27
2023-03-24T15:26:01.936Z,21.20
2023-03-24T15:28:31.631Z,21.70
2023-03-24T15:31:01.284Z,21.73
2023-03-24T15:33:31.297Z,21.00
2023-03-24T15:36:00.959Z,21.40
2023-03-24T15:38:32.534Z,20.17
2023-03-24T15:41:02.756Z,21.27
2023-03-24T15:43:31.966Z,20.57
2023-03-24T15:46:12.087Z,20.63
2023-03-24T15:48:41.089Z,20.40
2023-03-24T15:51:11.694Z,20.70
2023-03-24T15:53:44.731Z,21.10
2023-03-24T15:56:19.696Z,20.77
2023-03-24T15:58:52.350Z,20.50
2023-03-24T16:01:27.333Z,20.80
2023-03-24T16:03:56.198Z,20.83
2023-03-24T16:06:30.946Z,21.27
2023-03-24T16:09:08.546Z,20.70
2023-03-24T16:11:36.853Z,21.13
2023-03-24T16:14:19.402Z,20.70
2023-03-24T16:16:47.488Z,20.60
2023-03-24T16:19:15.979Z,20.87
2023-03-24T16:21:44.096Z,20.23
2023-03-24T16:24:13.469Z,20.80
2023-03-24T16:26:41.852Z,21.40
2023-03-24T16:29:17.224Z,21.87
2023-03-24T16:31:49.068Z,21.17
2023-03-24T16:34:19.241Z,21.30
2023-03-24T16:36:47.621Z,20.77
2023-03-24T16:39:18.822Z,20.63
2023-03-24T16:41:47.124Z,21.03
2023-03-24T16:44:17.253Z,22.20
2023-03-24T16:46:46.969Z,23.27
2023-03-24T16:49:17.436Z,23.30
2023-03-24T16:51:46.014Z,24.80
2023-03-24T16:54:14.511Z,22.37
2023-03-24T16:56:44.043Z,23.80
2023-03-24T16:59:12.525Z,24.10
2023-03-24T17:01:42.079Z,23.50
2023-03-24T17:04:13.830Z,23.77
2023-03-24T17:06:43.976Z,23.40
2023-03-24T17:09:13.064Z,25.10
2023-03-24T17:11:44.632Z,25.37
2023-03-24T17:14:13.155Z,25.63
2023-03-24T17:16:44.380Z,25.33
2023-03-24T17:19:13.857Z,26.13
2023-03-24T17:21:45.947Z,25.83
2023-03-24T17:24:15.166Z,26.27
2023-03-24T17:26:44.586Z,26.90
2023-03-24T17:29:13.810Z,25.60
2023-03-24T17:31:43.175Z,26.60
2023-03-24T17:36:45.143Z,26.73
2023-03-24T17:39:17.811Z,26.77
2023-03-24T17:41:47.305Z,25.17
2023-03-24T17:44:15.590Z,24.43
2023-03-24T17:46:43.799Z,23.93
2023-03-24T17:49:12.156Z,24.83
2023-03-24T17:51:40.078Z,24.47
2023-03-24T17:54:11.868Z,23.80
2023-03-24T17:56:40.134Z,23.07
2023-03-24T17:59:09.732Z,22.90
2023-03-24T18:01:39.225Z,21.87
2023-03-24T18:04:08.082Z,21.27
2023-03-24T18:06:38.391Z,20.90
2023-03-24T18:09:07.398Z,20.37
2023-03-24T18:11:36.039Z,19.80
2023-03-24T18:14:04.171Z,20.00
2023-03-24T18:16:35.453Z,20.50
2023-03-24T18:19:04.087Z,20.07
2023-03-24T18:21:32.923Z,20.60
2023-03-24T18:24:01.264Z,20.50
2023-03-24T18:26:35.472Z,20.37
2023-03-24T18:29:03.697Z,20.93
2023-03-24T18:31:33.619Z,21.30
2023-03-24T18:34:03.399Z,21.17
2023-03-24T18:36:32.257Z,21.30
2023-03-24T18:39:02.358Z,21.87
2023-03-24T18:41:31.268Z,21.40
2023-03-24T18:44:00.843Z,20.87
2023-03-24T18:46:29.201Z,20.83
2023-03-24T18:48:58.961Z,20.77
2023-03-24T18:51:28.226Z,20.37
2023-03-24T18:53:56.729Z,20.30
2023-03-24T18:56:25.501Z,20.80
2023-03-24T18:58:53.905Z,20.20
2023-03-24T19:01:23.550Z,19.63
2023-03-24T19:03:53.309Z,19.63
2023-03-24T19:06:26.216Z,19.40
2023-03-24T19:08:54.760Z,19.33
2023-03-24T19:11:22.876Z,19.00
2023-03-24T19:13:52.295Z,19.83
2023-03-24T19:16:21.257Z,19.90
2023-03-24T19:18:50.661Z,19.07
2023-03-24T19:21:19.483Z,19.27
2023-03-24T19:23:51.225Z,19.37
2023-03-24T19:26:20.958Z,19.23
2023-03-24T19:28:49.093Z,21.23
2023-03-24T19:31:19.027Z,19.63
2023-03-24T19:33:48.035Z,19.23
2023-03-24T19:36:16.472Z,19.90
2023-03-24T19:38:45.164Z,19.63
2023-03-24T19:41:15.913Z,20.40
2023-03-24T19:43:44.244Z,19.67
2023-03-24T19:46:12.403Z,19.43
2023-03-24T19:48:40.598Z,19.90
2023-03-24T19:51:08.599Z,20.17
2023-03-24T19:53:36.807Z,20.10
2023-03-24T19:56:05.223Z,20.23
2023-03-24T19:58:34.720Z,19.17
2023-03-24T20:01:02.836Z,19.90
2023-03-24T20:03:31.040Z,20.30
2023-03-24T20:06:05.081Z,22.70
2023-03-24T20:08:33.264Z,22.80
2023-03-24T20:11:03.587Z,24.53
2023-03-24T20:13:34.156Z,26.73
2023-03-24T20:16:03.096Z,29.17
2023-03-24T20:18:31.332Z,32.77
2023-03-24T20:21:01.382Z,37.23
2023-03-24T20:23:29.568Z,38.70
2023-03-24T20:26:01.022Z,40.70
2023-03-24T20:28:30.068Z,41.97
2023-03-24T20:31:03.871Z,46.17
2023-03-24T20:33:32.328Z,46.60
2023-03-24T20:36:00.770Z,46.10
2023-03-24T20:38:29.069Z,47.73
2023-03-24T20:41:01.285Z,46.53
2023-03-24T20:43:30.959Z,47.07
2023-03-24T20:45:59.691Z,46.20
2023-03-24T20:48:29.601Z,45.10
2023-03-24T20:50:57.765Z,39.40
2023-03-24T20:53:27.130Z,39.47
2023-03-24T20:55:59.785Z,40.93
2023-03-24T20:58:28.497Z,38.17
2023-03-24T21:00:56.774Z,35.63
2023-03-24T21:03:26.326Z,35.17
2023-03-24T21:05:56.012Z,34.33
2023-03-24T21:08:24.142Z,33.83
2023-03-24T21:10:56.500Z,33.23
2023-03-24T21:13:24.691Z,33.63
2023-03-24T21:15:53.328Z,29.00
2023-03-24T21:18:21.600Z,28.23
2023-03-24T21:20:55.107Z,25.73
2023-03-24T21:23:25.630Z,25.87
2023-03-24T21:25:53.850Z,24.27
2023-03-24T21:28:21.920Z,24.60
2023-03-24T21:30:50.031Z,23.97
2023-03-24T21:33:18.336Z,27.17
2023-03-24T21:35:46.608Z,27.97
2023-03-24T21:38:16.021Z,31.57
2023-03-24T21:40:46.503Z,30.77
2023-03-24T21:43:15.583Z,33.03
2023-03-24T21:45:46.428Z,32.83
2023-03-24T21:48:15.589Z,33.40
2023-03-24T21:50:45.726Z,33.83
2023-03-24T21:53:15.833Z,34.07
2023-03-24T21:55:51.350Z,32.90
2023-03-24T21:58:20.434Z,34.90
2023-03-24T22:00:50.200Z,32.20
2023-03-24T22:03:20.638Z,31.53
2023-03-24T22:05:48.942Z,32.13
2023-03-24T22:08:22.862Z,31.27
2023-03-24T22:10:57.991Z,31.67
2023-03-24T22:13:26.501Z,31.93
2023-03-24T22:15:56.052Z,32.03
2023-03-24T22:18:24.657Z,32.70
2023-03-24T22:20:57.159Z,31.93
2023-03-24T22:23:25.376Z,30.93
2023-03-24T22:25:54.854Z,31.80
2023-03-24T22:28:23.023Z,32.60
2023-03-24T22:30:51.177Z,33.67
2023-03-24T22:33:19.475Z,32.97
2023-03-24T22:35:47.649Z,32.70
2023-03-24T22:38:17.323Z,33.67
2023-03-24T22:40:45.518Z,35.40
2023-03-24T22:43:15.100Z,35.83
2023-03-24T22:45:43.614Z,35.53
2023-03-24T22:48:11.805Z,34.73
2023-03-24T22:50:41.267Z,34.17
2023-03-24T22:53:09.561Z,34.57
2023-03-24T22:55:39.074Z,34.77
2023-03-24T22:58:07.251Z,34.00
2023-03-24T23:00:36.812Z,34.67
2023-03-24T23:03:05.335Z,32.70
2023-03-24T23:05:33.653Z,32.60
2023-03-24T23:08:01.992Z,27.83
2023-03-24T23:10:30.193Z,26.17
2023-03-24T23:12:58.258Z,25.33
2023-03-24T23:15:26.370Z,22.60
2023-03-24T23:17:57.305Z,22.00
2023-03-24T23:20:25.850Z,22.73
2023-03-24T23:22:53.940Z,22.33
2023-03-24T23:25:22.321Z,22.60
2023-03-24T23:27:50.521Z,22.70
2023-03-24T23:30:19.682Z,22.70
2023-03-24T23:32:48.554Z,21.10
2023-03-24T23:35:18.151Z,21.10
2023-03-24T23:37:46.569Z,21.80
2023-03-24T23:40:16.070Z,21.50
2023-03-24T23:42:46.362Z,21.37
2023-03-24T23:45:18.146Z,21.23
2023-03-24T23:47:49.986Z,21.07
2023-03-24T23:50:21.047Z,21.10
2023-03-24T23:52:49.701Z,21.83
2023-03-24T23:55:18.697Z,21.50
2023-03-24T23:57:49.205Z,21.67
